createdAt,value
2022-11-20T00:02:11.650Z,69.44
2022-11-20T00:04:45.788Z,69.34
2022-11-20T00:07:18.677Z,69.12
2022-11-20T00:09:50.796Z,68.85
2022-11-20T00:12:22.866Z,68.68
2022-11-20T00:14:54.882Z,68.84
2022-11-20T00:17:26.760Z,68.99
2022-11-20T00:19:58.845Z,68.49
2022-11-20T00:22:30.838Z,68.50
2022-11-20T00:25:02.996Z,68.25
2022-11-20T00:27:35.500Z,68.44
2022-11-20T00:30:15.134Z,68.79
2022-11-20T00:32:48.999Z,69.84
2022-11-20T00:35:20.992Z,70.04
2022-11-20T00:37:52.892Z,69.81
2022-11-20T00:40:26.415Z,69.86
2022-11-20T00:42:58.366Z,70.15
2022-11-20T00:45:30.239Z,70.52
2022-11-20T00:48:01.999Z,70.22
2022-11-20T00:50:33.898Z,70.10
2022-11-20T00:53:05.642Z,70.36
2022-11-20T00:55:37.878Z,70.17
2022-11-20T00:58:14.158Z,69.73
2022-11-20T01:00:46.512Z,69.63
2022-11-20T01:03:24.051Z,69.39
2022-11-20T01:06:03.841Z,69.65
2022-11-20T01:08:38.151Z,69.52
2022-11-20T01:11:13.384Z,69.56
2022-11-20T01:13:46.681Z,70.02
2022-11-20T01:16:21.461Z,69.67
2022-11-20T01:18:57.644Z,69.82
2022-11-20T01:21:34.545Z,69.88
2022-11-20T01:24:13.177Z,69.77
2022-11-20T01:26:46.597Z,70.28
2022-11-20T01:29:22.073Z,70.17
2022-11-20T01:31:55.408Z,70.46
2022-11-20T01:34:27.822Z,70.63
2022-11-20T01:36:59.768Z,70.72
2022-11-20T01:39:32.197Z,70.61
2022-11-20T01:42:22.859Z,70.85
2022-11-20T01:45:00.260Z,72.46
2022-11-20T01:47:36.902Z,72.44
2022-11-20T01:50:15.536Z,72.57
2022-11-20T01:52:55.491Z,72.79
2022-11-20T01:55:33.689Z,73.24
2022-11-20T01:58:06.809Z,73.04
2022-11-20T02:00:38.944Z,72.89
2022-11-20T02:03:15.815Z,73.57
2022-11-20T02:05:53.614Z,73.09
2022-11-20T02:08:27.051Z,72.96
2022-11-20T02:11:01.882Z,73.01
2022-11-20T02:13:47.518Z,73.11
2022-11-20T02:16:24.342Z,74.05
2022-11-20T02:18:59.695Z,74.14
2022-11-20T02:21:45.969Z,74.38
2022-11-20T02:24:21.630Z,73.96
2022-11-20T02:26:56.521Z,74.03
2022-11-20T02:29:34.018Z,73.96
2022-11-20T02:32:07.009Z,74.04
2022-11-20T02:34:38.727Z,74.10
2022-11-20T02:37:10.727Z,74.07
2022-11-20T02:39:44.388Z,74.25
2022-11-20T02:42:16.281Z,74.45
2022-11-20T02:44:49.103Z,74.51
2022-11-20T02:47:21.499Z,74.49
2022-11-20T02:49:53.339Z,74.98
2022-11-20T02:52:25.591Z,75.18
2022-11-20T02:54:58.236Z,75.29
2022-11-20T02:57:30.143Z,75.30
2022-11-20T03:00:02.236Z,75.06
2022-11-20T03:02:35.719Z,74.53
2022-11-20T03:05:09.469Z,74.21
2022-11-20T03:07:41.331Z,73.86
2022-11-20T03:10:13.862Z,73.82
2022-11-20T03:12:48.624Z,73.67
2022-11-20T03:15:21.828Z,73.31
2022-11-20T03:18:02.485Z,73.24
2022-11-20T03:20:36.372Z,73.51
2022-11-20T03:23:08.425Z,72.83
2022-11-20T03:25:40.392Z,72.56
2022-11-20T03:28:12.709Z,73.18
2022-11-20T03:30:46.217Z,73.58
2022-11-20T03:33:18.115Z,73.80
2022-11-20T03:35:50.295Z,73.80
2022-11-20T03:38:22.218Z,73.53
2022-11-20T03:41:00.398Z,73.59
2022-11-20T03:43:34.573Z,73.50
2022-11-20T03:46:06.367Z,73.85
2022-11-20T03:48:38.292Z,73.82
2022-11-20T03:51:16.264Z,73.10
2022-11-20T03:53:52.263Z,73.21
2022-11-20T03:56:28.616Z,73.47
2022-11-20T03:59:01.159Z,73.35
2022-11-20T04:01:36.634Z,72.89
2022-11-20T04:04:10.873Z,73.02
2022-11-20T04:06:43.304Z,72.90
2022-11-20T04:09:15.483Z,72.58
2022-11-20T04:11:47.928Z,72.78
2022-11-20T04:14:20.483Z,72.63
2022-11-20T04:16:54.371Z,72.59
2022-11-20T04:19:26.630Z,72.56
2022-11-20T04:21:58.434Z,72.55
2022-11-20T04:24:31.186Z,72.52
2022-11-20T04:27:02.950Z,72.43
2022-11-20T04:29:34.768Z,72.37
2022-11-20T04:32:06.700Z,72.28
2022-11-20T04:34:38.382Z,72.45
2022-11-20T04:37:10.118Z,72.47
2022-11-20T04:39:42.038Z,72.45
2022-11-20T04:42:33.413Z,72.15
2022-11-20T04:45:07.919Z,72.13
2022-11-20T04:47:41.046Z,72.04
2022-11-20T04:50:15.100Z,71.90
2022-11-20T04:52:46.968Z,71.80
2022-11-20T04:55:19.700Z,71.61
2022-11-20T04:57:54.689Z,71.77
2022-11-20T05:00:26.859Z,71.53
2022-11-20T05:02:59.226Z,71.39
2022-11-20T05:05:31.280Z,71.34
2022-11-20T05:08:04.976Z,71.86
2022-11-20T05:10:37.074Z,71.74
2022-11-20T05:13:09.684Z,71.54
2022-11-20T05:15:41.820Z,71.64
2022-11-20T05:18:14.235Z,71.73
2022-11-20T05:20:46.135Z,71.47
2022-11-20T05:23:18.193Z,71.46
2022-11-20T05:25:52.356Z,71.51
2022-11-20T05:28:31.058Z,71.51
2022-11-20T05:31:12.924Z,71.34
2022-11-20T05:33:47.591Z,71.62
2022-11-20T05:36:20.690Z,71.37
2022-11-20T05:38:58.027Z,71.26
2022-11-20T05:41:36.881Z,71.23
2022-11-20T05:44:09.018Z,71.03
2022-11-20T05:46:40.906Z,71.04
2022-11-20T05:49:13.749Z,71.04
2022-11-20T05:51:48.827Z,70.84
2022-11-20T05:54:20.879Z,70.72
2022-11-20T05:56:53.069Z,71.07
2022-11-20T05:59:24.830Z,70.94
2022-11-20T06:01:57.565Z,70.88
2022-11-20T06:04:30.514Z,70.83
2022-11-20T06:07:02.920Z,70.87
2022-11-20T06:09:36.787Z,71.00
2022-11-20T06:12:10.558Z,70.90
2022-11-20T06:14:42.636Z,71.15
2022-11-20T06:17:15.463Z,71.13
2022-11-20T06:19:47.568Z,70.65
2022-11-20T06:22:19.639Z,70.87
2022-11-20T06:24:51.430Z,70.66
2022-11-20T06:27:23.995Z,70.88
2022-11-20T06:29:59.784Z,70.75
2022-11-20T06:32:32.162Z,71.41
2022-11-20T06:35:04.436Z,71.23
2022-11-20T06:37:36.208Z,70.91
2022-11-20T06:40:22.865Z,70.55
2022-11-20T06:42:57.203Z,70.29
2022-11-20T06:45:29.953Z,70.03
2022-11-20T06:48:03.464Z,69.74
2022-11-20T06:50:35.865Z,69.27
2022-11-20T06:53:08.925Z,69.77
2022-11-20T06:55:46.354Z,70.03
2022-11-20T06:58:20.579Z,69.67
2022-11-20T07:00:52.743Z,69.36
2022-11-20T07:03:26.106Z,69.21
2022-11-20T07:06:00.104Z,68.96
2022-11-20T07:08:33.139Z,68.58
2022-11-20T07:11:08.776Z,68.63
2022-11-20T07:13:40.630Z,69.02
2022-11-20T07:16:13.078Z,68.85
2022-11-20T07:18:50.191Z,68.79
2022-11-20T07:21:25.209Z,68.94
2022-11-20T07:23:58.684Z,68.71
2022-11-20T07:26:30.508Z,68.71
2022-11-20T07:29:02.292Z,69.15
2022-11-20T07:31:34.326Z,68.96
2022-11-20T07:34:06.659Z,68.59
2022-11-20T07:36:38.679Z,68.73
2022-11-20T07:39:10.402Z,68.31
2022-11-20T07:41:42.440Z,67.80
2022-11-20T07:44:14.167Z,67.57
2022-11-20T07:46:46.630Z,67.67
2022-11-20T07:49:18.555Z,67.64
2022-11-20T07:51:55.074Z,67.53
2022-11-20T07:54:31.054Z,67.81
2022-11-20T07:57:02.835Z,67.56
2022-11-20T07:59:35.033Z,67.27
2022-11-20T08:02:07.564Z,67.46
2022-11-20T08:04:40.104Z,67.66
2022-11-20T08:07:12.055Z,67.84
2022-11-20T08:09:44.347Z,67.48
2022-11-20T08:12:56.266Z,67.40
2022-11-20T08:15:28.011Z,67.25
2022-11-20T08:21:00.741Z,67.37
2022-11-20T08:23:34.282Z,67.12
2022-11-20T08:26:07.114Z,67.12
2022-11-20T08:28:39.199Z,67.05
2022-11-20T08:31:12.066Z,66.96
2022-11-20T08:33:44.030Z,66.66
2022-11-20T08:36:16.335Z,66.77
2022-11-20T08:38:52.863Z,66.53
2022-11-20T08:41:27.934Z,66.23
2022-11-20T08:44:05.000Z,66.54
2022-11-20T08:46:39.208Z,66.76
2022-11-20T08:49:13.258Z,66.52
2022-11-20T08:51:46.423Z,66.72
2022-11-20T08:54:21.115Z,66.41
2022-11-20T08:56:53.012Z,65.85
2022-11-20T08:59:50.667Z,66.07
2022-11-20T09:02:17.651Z,65.55
2022-11-20T09:04:49.625Z,64.82
2022-11-20T09:07:21.814Z,64.97
2022-11-20T09:10:09.970Z,64.28
2022-11-20T09:12:46.054Z,64.17
2022-11-20T09:15:18.776Z,71.88
2022-11-20T09:17:55.459Z,65.85
2022-11-20T09:20:32.508Z,65.03
2022-11-20T09:23:04.469Z,64.57
2022-11-20T09:25:37.173Z,64.49
2022-11-20T09:28:11.676Z,64.00
2022-11-20T09:30:43.695Z,64.29
2022-11-20T09:33:15.670Z,64.06
2022-11-20T09:35:48.521Z,64.10
2022-11-20T09:38:20.240Z,64.11
2022-11-20T09:40:59.180Z,63.58
2022-11-20T09:43:43.507Z,63.85
2022-11-20T09:46:22.782Z,63.57
2022-11-20T09:49:11.836Z,63.42
2022-11-20T09:51:52.734Z,63.71
2022-11-20T09:54:28.692Z,63.64
2022-11-20T09:57:06.593Z,63.86
2022-11-20T09:59:43.919Z,63.29
2022-11-20T10:02:38.438Z,63.64
2022-11-20T10:05:18.540Z,63.86
2022-11-20T10:08:01.772Z,63.89
2022-11-20T10:10:43.992Z,63.25
2022-11-20T10:13:33.904Z,62.83
2022-11-20T10:16:21.213Z,62.65
2022-11-20T10:19:09.364Z,62.71
2022-11-20T10:21:53.510Z,62.29
2022-11-20T10:24:53.042Z,62.30
2022-11-20T10:28:04.372Z,62.57
2022-11-20T10:30:42.549Z,62.75
2022-11-20T10:33:19.153Z,63.16
2022-11-20T10:35:57.046Z,63.08
2022-11-20T10:38:37.631Z,62.44
2022-11-20T10:47:35.602Z,62.61
2022-11-20T10:50:18.991Z,62.28
2022-11-20T10:53:05.254Z,62.29
2022-11-20T10:55:47.103Z,62.53
2022-11-20T10:58:29.420Z,62.92
2022-11-20T11:01:15.719Z,63.41
2022-11-20T11:03:48.561Z,63.40
2022-11-20T11:06:28.081Z,62.73
2022-11-20T11:09:05.012Z,63.15
2022-11-20T11:11:37.501Z,62.83
2022-11-20T11:14:11.184Z,62.46
2022-11-20T11:16:53.611Z,62.75
2022-11-20T11:19:27.340Z,62.42
2022-11-20T11:22:01.543Z,62.60
2022-11-20T11:24:42.214Z,62.55
2022-11-20T11:27:19.165Z,62.87
2022-11-20T11:29:52.397Z,62.21
2022-11-20T11:32:25.196Z,62.42
2022-11-20T11:35:07.475Z,62.62
2022-11-20T11:37:42.077Z,63.03
2022-11-20T11:40:23.970Z,62.77
2022-11-20T11:43:03.318Z,62.58
2022-11-20T11:45:35.597Z,62.22
2022-11-20T11:48:12.270Z,62.27
2022-11-20T11:50:53.669Z,62.71
2022-11-20T11:53:29.839Z,62.80
2022-11-20T11:56:10.694Z,62.42
2022-11-20T11:58:49.600Z,62.72
2022-11-20T12:01:34.542Z,62.60
2022-11-20T12:04:13.056Z,62.79
2022-11-20T12:06:50.699Z,63.12
2022-11-20T12:09:30.654Z,62.72
2022-11-20T12:12:12.797Z,62.82
2022-11-20T12:14:48.430Z,62.62
2022-11-20T12:17:20.944Z,62.45
2022-11-20T12:19:53.745Z,62.57
2022-11-20T12:22:36.883Z,62.68
2022-11-20T12:25:14.014Z,62.76
2022-11-20T12:28:22.385Z,62.82
2022-11-20T12:31:06.324Z,62.43
2022-11-20T12:33:53.885Z,62.68
2022-11-20T12:36:38.403Z,63.01
2022-11-20T12:39:39.129Z,62.32
2022-11-20T12:43:14.809Z,62.56
2022-11-20T12:46:04.882Z,62.63
2022-11-20T12:49:04.425Z,62.84
2022-11-20T12:51:54.047Z,62.57
2022-11-20T12:55:11.624Z,63.25
2022-11-20T12:57:53.754Z,62.78
2022-11-20T13:00:27.436Z,62.56
2022-11-20T13:03:33.632Z,62.28
2022-11-20T13:06:15.983Z,61.93
2022-11-20T13:08:55.432Z,62.02
2022-11-20T13:11:35.758Z,61.48
2022-11-20T13:14:22.127Z,61.34
2022-11-20T13:17:05.897Z,61.19
2022-11-20T13:19:39.939Z,61.44
2022-11-20T13:22:12.929Z,61.51
2022-11-20T13:24:54.879Z,62.53
2022-11-20T13:27:27.889Z,62.71
2022-11-20T13:30:19.779Z,62.32
2022-11-20T13:33:01.873Z,62.57
2022-11-20T13:35:37.840Z,62.58
2022-11-20T13:38:13.972Z,62.84
2022-11-20T13:40:57.669Z,62.52
2022-11-20T13:43:40.378Z,62.47
2022-11-20T13:46:13.255Z,62.14
2022-11-20T13:48:47.151Z,61.85
2022-11-20T13:51:36.481Z,62.31
2022-11-20T13:54:30.078Z,62.47
2022-11-20T13:57:13.674Z,62.62
2022-11-20T13:59:59.523Z,62.93
2022-11-20T14:02:33.133Z,62.72
2022-11-20T14:05:19.481Z,62.80
2022-11-20T14:07:54.932Z,62.41
2022-11-20T14:10:32.389Z,62.55
2022-11-20T14:13:20.839Z,63.34
2022-11-20T14:16:00.619Z,63.46
2022-11-20T14:18:32.641Z,63.54
2022-11-20T14:21:06.420Z,63.28
2022-11-20T14:23:40.114Z,63.67
2022-11-20T14:26:17.265Z,63.51
2022-11-20T14:28:53.256Z,63.16
2022-11-20T14:31:29.091Z,63.75
2022-11-20T14:34:01.056Z,63.87
2022-11-20T14:36:32.889Z,64.30
2022-11-20T14:39:04.965Z,64.34
2022-11-20T14:41:37.018Z,64.06
2022-11-20T14:44:13.504Z,63.55
2022-11-20T14:46:46.112Z,64.29
2022-11-20T14:49:19.216Z,64.48
2022-11-20T14:52:03.902Z,65.27
2022-11-20T14:54:45.409Z,65.30
2022-11-20T14:57:29.258Z,65.52
2022-11-20T15:00:27.475Z,65.54
2022-11-20T15:02:59.395Z,65.54
2022-11-20T15:05:49.136Z,65.56
2022-11-20T15:08:21.826Z,65.91
2022-11-20T15:10:56.273Z,65.38
2022-11-20T15:13:35.705Z,65.73
2022-11-20T15:16:17.152Z,65.68
2022-11-20T15:18:49.841Z,65.86
2022-11-20T15:21:23.280Z,65.97
2022-11-20T15:23:56.542Z,65.88
2022-11-20T15:26:30.052Z,65.78
2022-11-20T15:29:02.714Z,65.46
2022-11-20T15:31:36.190Z,65.36
2022-11-20T15:34:15.556Z,65.53
2022-11-20T15:36:48.402Z,64.99
2022-11-20T15:39:20.304Z,65.40
2022-11-20T15:41:52.495Z,65.33
2022-11-20T15:44:25.233Z,65.14
2022-11-20T15:46:58.214Z,65.18
2022-11-20T15:49:30.720Z,65.20
2022-11-20T15:52:02.747Z,65.00
2022-11-20T15:54:34.652Z,65.12
2022-11-20T15:57:07.218Z,65.13
2022-11-20T15:59:41.012Z,65.30
2022-11-20T16:02:19.210Z,65.28
2022-11-20T16:04:52.110Z,65.41
2022-11-20T16:07:24.106Z,65.25
2022-11-20T16:09:58.286Z,65.35
2022-11-20T16:12:48.516Z,65.53
2022-11-20T16:15:40.757Z,66.32
2022-11-20T16:18:16.503Z,66.33
2022-11-20T16:20:51.445Z,66.12
2022-11-20T16:23:24.358Z,65.95
2022-11-20T16:25:56.487Z,65.86
2022-11-20T16:28:28.655Z,65.92
2022-11-20T16:31:09.433Z,65.91
2022-11-20T16:33:41.733Z,66.12
2022-11-20T16:36:16.193Z,65.74
2022-11-20T16:38:48.983Z,65.73
2022-11-20T16:41:21.005Z,65.76
2022-11-20T16:43:58.307Z,65.60
2022-11-20T16:46:33.384Z,65.40
2022-11-20T16:49:07.585Z,65.48
2022-11-20T16:51:39.657Z,65.67
2022-11-20T16:54:19.507Z,64.99
2022-11-20T16:56:54.697Z,64.89
2022-11-20T16:59:26.872Z,64.93
2022-11-20T17:01:58.998Z,64.67
2022-11-20T17:04:31.225Z,64.89
2022-11-20T17:07:07.841Z,65.29
2022-11-20T17:09:42.012Z,65.54
2022-11-20T17:12:16.886Z,66.12
2022-11-20T17:14:49.163Z,65.92
2022-11-20T17:17:21.504Z,66.25
2022-11-20T17:19:53.426Z,66.08
2022-11-20T17:22:25.316Z,66.13
2022-11-20T17:24:57.407Z,66.35
2022-11-20T17:27:30.423Z,66.18
2022-11-20T17:30:02.146Z,66.23
2022-11-20T17:32:34.243Z,65.97
2022-11-20T17:35:06.839Z,65.82
2022-11-20T17:37:38.739Z,65.79
2022-11-20T17:40:14.570Z,65.57
2022-11-20T17:42:46.767Z,65.49
2022-11-20T17:45:19.410Z,65.45
2022-11-20T17:47:51.704Z,65.56
2022-11-20T17:50:23.977Z,65.65
2022-11-20T17:52:55.888Z,66.08
2022-11-20T17:55:51.459Z,66.20
2022-11-20T17:58:30.748Z,66.23
2022-11-20T18:01:09.583Z,66.22
2022-11-20T18:03:42.926Z,66.12
2022-11-20T18:06:17.195Z,65.74
2022-11-20T18:08:50.232Z,65.65
2022-11-20T18:11:24.655Z,65.74
2022-11-20T18:14:16.343Z,65.55
2022-11-20T18:16:52.305Z,65.59
2022-11-20T18:19:31.459Z,65.45
2022-11-20T18:22:08.245Z,65.48
2022-11-20T18:24:42.506Z,65.70
2022-11-20T18:27:20.473Z,65.75
2022-11-20T18:29:53.957Z,65.46
2022-11-20T18:32:26.606Z,65.61
2022-11-20T18:36:16.161Z,65.23
2022-11-20T18:38:53.853Z,64.99
2022-11-20T18:41:50.178Z,65.26
2022-11-20T18:44:43.033Z,65.30
2022-11-20T18:47:21.019Z,65.04
2022-11-20T18:49:57.560Z,65.03
2022-11-20T18:52:34.859Z,65.45
2022-11-20T18:55:09.486Z,65.37
2022-11-20T18:57:40.323Z,65.13
2022-11-20T19:00:16.617Z,64.90
2022-11-20T19:02:56.263Z,64.94
2022-11-20T19:05:28.020Z,64.81
2022-11-20T19:08:00.734Z,64.74
2022-11-20T19:10:39.491Z,64.77
2022-11-20T19:13:12.774Z,64.86
2022-11-20T19:15:45.016Z,65.07
2022-11-20T19:18:17.431Z,65.06
2022-11-20T19:20:52.683Z,65.13
2022-11-20T19:23:26.927Z,65.22
2022-11-20T19:26:03.625Z,65.03
2022-11-20T19:28:41.173Z,65.14
2022-11-20T19:31:17.266Z,65.15
2022-11-20T19:33:57.542Z,65.22
2022-11-20T19:36:34.634Z,65.49
2022-11-20T19:39:14.227Z,65.77
2022-11-20T19:41:48.155Z,65.86
2022-11-20T19:44:20.815Z,66.47
2022-11-20T19:46:53.595Z,66.55
2022-11-20T19:49:28.532Z,66.47
2022-11-20T19:52:04.632Z,66.44
2022-11-20T19:54:38.080Z,66.37
2022-11-20T19:57:11.514Z,66.22
2022-11-20T19:59:44.775Z,66.07
2022-11-20T20:02:18.874Z,66.11
2022-11-20T20:04:51.504Z,66.24
2022-11-20T20:07:26.319Z,66.08
2022-11-20T20:09:58.429Z,65.74
2022-11-20T20:12:32.199Z,65.95
2022-11-20T20:15:09.697Z,65.68
2022-11-20T20:17:43.480Z,65.29
2022-11-20T20:20:19.452Z,65.09
2022-11-20T20:22:53.312Z,64.62
2022-11-20T20:25:26.093Z,64.29
2022-11-20T20:27:59.718Z,64.02
2022-11-20T20:30:31.530Z,63.76
2022-11-20T20:33:08.351Z,63.68
2022-11-20T20:35:44.514Z,63.70
2022-11-20T20:38:16.984Z,63.65
2022-11-20T20:40:52.940Z,63.55
2022-11-20T20:43:25.157Z,63.42
2022-11-20T20:45:57.844Z,63.30
2022-11-20T20:48:30.865Z,63.25
2022-11-20T20:51:08.706Z,62.95
2022-11-20T20:53:41.187Z,63.06
2022-11-20T20:56:14.132Z,63.13
2022-11-20T20:58:48.102Z,62.90
2022-11-20T21:01:23.030Z,62.92
2022-11-20T21:03:56.556Z,62.85
2022-11-20T21:06:28.832Z,62.78
2022-11-20T21:09:02.996Z,62.69
2022-11-20T21:11:35.562Z,62.95
2022-11-20T21:14:07.826Z,62.87
2022-11-20T21:16:44.294Z,62.93
2022-11-20T21:19:16.779Z,62.82
2022-11-20T21:22:04.004Z,63.13
2022-11-20T21:24:38.132Z,63.20
2022-11-20T21:27:10.114Z,63.29
2022-11-20T21:29:42.077Z,63.15
2022-11-20T21:32:13.946Z,63.32
2022-11-20T21:34:50.053Z,62.94
2022-11-20T21:37:30.218Z,62.81
2022-11-20T21:40:04.077Z,63.17
2022-11-20T21:42:36.085Z,63.29
2022-11-20T21:45:09.770Z,63.27
2022-11-20T21:47:41.608Z,63.27
2022-11-20T21:50:13.552Z,63.35
2022-11-20T21:52:45.662Z,63.06
2022-11-20T21:55:17.812Z,63.11
2022-11-20T21:57:49.639Z,63.32
2022-11-20T22:00:22.370Z,63.39
2022-11-20T22:02:54.473Z,63.36
2022-11-20T22:05:26.476Z,63.17
2022-11-20T22:07:58.606Z,62.75
2022-11-20T22:10:30.353Z,62.52
2022-11-20T22:13:17.359Z,62.34
2022-11-20T22:16:04.355Z,62.44
2022-11-20T22:18:36.477Z,62.55
2022-11-20T22:21:09.332Z,62.60
2022-11-20T22:23:42.064Z,62.70
2022-11-20T22:26:16.082Z,62.65
2022-11-20T22:28:50.154Z,62.38
2022-11-20T22:31:23.579Z,62.27
2022-11-20T22:33:57.742Z,62.36
2022-11-20T22:36:34.013Z,62.20
2022-11-20T22:39:08.811Z,62.09
2022-11-20T22:41:40.532Z,62.19
2022-11-20T22:44:17.283Z,61.98
2022-11-20T22:46:49.032Z,62.10
2022-11-20T22:49:20.917Z,62.90
2022-11-20T22:51:52.723Z,62.86
2022-11-20T22:54:25.698Z,63.03
2022-11-20T22:56:58.654Z,63.18
2022-11-20T22:59:30.459Z,62.93
2022-11-20T23:02:02.292Z,63.11
2022-11-20T23:04:34.852Z,63.13
2022-11-20T23:07:06.579Z,63.17
2022-11-20T23:09:38.984Z,63.14
2022-11-20T23:12:10.929Z,63.09
2022-11-20T23:14:42.661Z,62.83
2022-11-20T23:17:14.599Z,62.95
2022-11-20T23:19:46.366Z,62.82
2022-11-20T23:22:18.061Z,62.71
2022-11-20T23:24:50.847Z,62.86
2022-11-20T23:27:26.012Z,63.01
2022-11-20T23:30:00.338Z,62.98
2022-11-20T23:32:32.593Z,62.84
2022-11-20T23:35:04.521Z,62.46
2022-11-20T23:37:37.137Z,62.94
2022-11-20T23:40:11.034Z,62.98
2022-11-20T23:43:03.335Z,63.39
2022-11-20T23:45:40.673Z,63.43
2022-11-20T23:48:13.548Z,63.48
2022-11-20T23:50:46.211Z,63.59
2022-11-20T23:53:19.682Z,63.18
2022-11-20T23:55:53.418Z,62.89
2022-11-20T23:58:27.115Z,62.74
